Time;durP1;ratioP1;P1;durP2;ratioP2;P2;SDS_P1;SDS_P2;PMS_P1;PMS_P2;Temp;Humidity;BMP_temperature;BMP_pressure;BME280_temperature;BME280_humidity;BME280_pressure;Samples;Min_cycle;Max_cycle;Signal;HPM_P1;HPM_P2
2023/05/10 00:01:24;;;;;;;18.02;12.57;;;16.00;83.30;;;;;;5068798;28;20017;-65
2023/05/10 00:03:50;;;;;;;19.05;12.93;;;16.00;83.30;;;;;;5065177;28;20497;-64
2023/05/10 00:06:15;;;;;;;20.15;13.27;;;16.00;83.30;;;;;;5060571;28;20040;-65
2023/05/10 00:08:41;;;;;;;20.50;15.05;;;16.00;83.40;;;;;;5063285;28;20017;-65
2023/05/10 00:11:07;;;;;;;23.45;15.38;;;16.00;83.40;;;;;;5063648;28;20465;-65
2023/05/10 00:13:33;;;;;;;21.02;14.52;;;16.00;83.40;;;;;;5073726;28;20055;-64
2023/05/10 00:15:59;;;;;;;22.17;15.63;;;16.00;83.40;;;;;;5051410;28;20020;-64
2023/05/10 00:18:25;;;;;;;23.90;17.02;;;16.00;83.40;;;;;;5061569;28;20108;-64
2023/05/10 00:20:50;;;;;;;23.40;16.58;;;16.00;83.50;;;;;;5065787;28;20445;-64
2023/05/10 00:23:16;;;;;;;24.30;16.52;;;16.00;83.50;;;;;;5072944;28;20150;-64
2023/05/10 00:25:42;;;;;;;24.38;17.38;;;16.00;83.50;;;;;;5069633;28;20024;-64
2023/05/10 00:28:08;;;;;;;25.50;17.35;;;16.00;83.50;;;;;;5071654;28;20369;-64
2023/05/10 00:30:33;;;;;;;27.23;16.90;;;16.00;83.50;;;;;;5062435;28;20025;-64
2023/05/10 00:33:01;;;;;;;26.23;17.92;;;16.00;83.50;;;;;;5068504;28;20029;-65
2023/05/10 00:35:27;;;;;;;28.70;19.10;;;16.00;83.50;;;;;;5081452;28;20043;-64
2023/05/10 00:37:53;;;;;;;27.83;19.40;;;16.00;83.60;;;;;;5058512;28;20025;-64
2023/05/10 00:40:20;;;;;;;31.08;21.58;;;16.00;83.60;;;;;;5061690;28;20112;-64
2023/05/10 00:42:50;;;;;;;28.75;20.20;;;16.00;83.60;;;;;;5071190;28;20027;-64
2023/05/10 00:45:16;;;;;;;32.90;22.35;;;16.00;83.60;;;;;;5072968;28;20022;-65
2023/05/10 00:47:42;;;;;;;33.38;22.50;;;16.00;83.70;;;;;;5083490;28;20020;-64
2023/05/10 00:50:09;;;;;;;33.17;22.45;;;16.00;83.70;;;;;;5074005;28;20040;-65
2023/05/10 00:52:34;;;;;;;33.92;23.83;;;16.00;83.70;;;;;;5071727;28;20024;-65
2023/05/10 00:55:03;;;;;;;34.58;24.17;;;16.00;83.70;;;;;;5060446;28;20107;-65
2023/05/10 00:57:29;;;;;;;33.53;23.80;;;16.00;83.70;;;;;;5053708;28;20438;-65
2023/05/10 00:59:54;;;;;;;32.83;24.30;;;16.00;83.70;;;;;;5062732;28;20024;-65
2023/05/10 01:02:20;;;;;;;39.22;24.52;;;16.00;83.70;;;;;;5059646;28;20027;-64
2023/05/10 01:04:46;;;;;;;35.45;25.33;;;16.00;83.70;;;;;;5059026;28;20032;-65
2023/05/10 01:07:12;;;;;;;33.63;22.75;;;16.00;83.70;;;;;;5069911;28;20037;-64
2023/05/10 01:09:37;;;;;;;34.35;24.58;;;16.00;83.80;;;;;;5062879;28;20041;-65
2023/05/10 01:12:06;;;;;;;34.15;24.10;;;16.00;83.80;;;;;;5066224;28;20021;-65
2023/05/10 01:14:33;;;;;;;36.97;24.85;;;16.00;83.80;;;;;;5046828;28;20032;-64
2023/05/10 01:17:00;;;;;;;31.85;23.98;;;16.00;83.80;;;;;;5068054;28;20047;-65
2023/05/10 01:19:29;;;;;;;36.63;24.75;;;16.00;83.80;;;;;;5061256;28;20457;-65
2023/05/10 01:22:28;;;;;;;35.20;25.05;;;16.00;83.90;;;;;;5079964;28;20024;-64
2023/05/10 01:25:18;;;;;;;35.72;24.52;;;16.00;83.90;;;;;;5055069;28;20035;-65
2023/05/10 01:28:16;;;;;;;35.85;24.02;;;16.00;84.00;;;;;;5071683;28;20447;-65
2023/05/10 01:30:58;;;;;;;35.42;24.38;;;16.00;83.80;;;;;;5070649;28;20035;-64
2023/05/10 01:33:47;;;;;;;37.15;25.55;;;16.00;84.00;;;;;;5070788;28;20036;-65
2023/05/10 01:36:26;;;;;;;38.35;25.02;;;16.00;84.00;;;;;;5061915;28;20476;-65
2023/05/10 01:39:28;;;;;;;37.92;25.30;;;16.00;84.00;;;;;;5066883;28;20127;-65
2023/05/10 01:42:10;;;;;;;;;;;16.00;84.00;;;;;;5039987;28;20586;-64
2023/05/10 01:44:40;;;;;;;32.50;20.90;;;16.00;84.00;;;;;;5071841;28;19960;-64
2023/05/10 01:47:16;;;;;;;34.67;23.52;;;15.90;83.90;;;;;;5062951;28;20020;-65
2023/05/10 01:49:51;;;;;;;35.08;23.25;;;15.90;84.00;;;;;;5072164;28;20020;-65
2023/05/10 01:52:28;;;;;;;34.03;23.02;;;16.00;84.10;;;;;;5066404;28;20369;-65
2023/05/10 01:55:01;;;;;;;33.53;23.95;;;15.90;84.10;;;;;;5070342;28;20027;-65
2023/05/10 01:57:34;;;;;;;36.05;24.30;;;16.00;84.20;;;;;;5064624;28;20095;-65
2023/05/10 02:00:03;;;;;;;33.58;22.83;;;16.00;84.20;;;;;;5067990;28;20020;-65
2023/05/10 02:02:44;;;;;;;33.75;22.52;;;15.90;84.10;;;;;;5071386;28;20112;-65
2023/05/10 02:05:13;;;;;;;35.47;23.77;;;16.00;84.20;;;;;;5059230;28;20036;-65
2023/05/10 02:07:40;;;;;;;32.80;22.83;;;16.00;84.30;;;;;;5072865;28;20036;-65
2023/05/10 02:10:09;;;;;;;36.00;23.50;;;15.90;84.20;;;;;;5071255;28;20049;-65
2023/05/10 02:12:41;;;;;;;30.70;21.33;;;15.90;84.20;;;;;;5079648;28;20025;-65
2023/05/10 02:15:08;;;;;;;33.17;22.27;;;16.00;84.30;;;;;;5066508;28;20037;-65
2023/05/10 02:17:36;;;;;;;33.03;22.50;;;16.00;84.30;;;;;;5059758;28;20025;-65
2023/05/10 02:20:04;;;;;;;34.22;21.77;;;16.00;84.30;;;;;;5070712;28;20028;-65
2023/05/10 02:22:31;;;;;;;33.72;22.60;;;16.00;84.30;;;;;;5059572;28;20441;-65
2023/05/10 02:24:59;;;;;;;33.88;21.98;;;15.90;84.30;;;;;;5068237;28;20139;-65
2023/05/10 02:27:27;;;;;;;34.83;23.75;;;16.00;84.30;;;;;;5060626;28;20471;-65
2023/05/10 02:29:54;;;;;;;35.22;21.65;;;16.00;84.30;;;;;;5055884;28;20135;-65
2023/05/10 02:32:24;;;;;;;33.72;21.23;;;16.00;84.40;;;;;;5065886;28;20029;-65
2023/05/10 02:34:52;;;;;;;32.25;21.33;;;16.00;84.40;;;;;;5071182;28;20025;-65
2023/05/10 02:37:22;;;;;;;33.00;21.75;;;16.00;84.40;;;;;;5067751;28;20051;-65
2023/05/10 02:39:53;;;;;;;32.65;22.25;;;16.00;84.40;;;;;;5083149;28;20346;-65
2023/05/10 02:42:22;;;;;;;;;;;16.00;84.40;;;;;;5045279;28;20025;-65
2023/05/10 02:44:52;;;;;;;33.17;19.52;;;16.00;84.30;;;;;;5086959;28;19908;-65
2023/05/10 02:47:18;;;;;;;35.58;20.52;;;16.00;84.40;;;;;;5069302;28;20086;-65
2023/05/10 02:49:45;;;;;;;36.30;21.77;;;16.00;84.40;;;;;;5066676;28;20037;-65
2023/05/10 02:52:16;;;;;;;37.25;21.70;;;15.90;84.40;;;;;;5061997;28;20450;-65
2023/05/10 02:54:49;;;;;;;37.20;23.45;;;16.00;84.50;;;;;;5057459;28;20284;-65
2023/05/10 02:57:20;;;;;;;35.90;22.63;;;15.90;84.40;;;;;;5058180;28;20075;-65
2023/05/10 02:59:45;;;;;;;34.63;21.50;;;16.00;84.40;;;;;;5071955;28;20021;-65
2023/05/10 03:02:14;;;;;;;39.58;23.67;;;15.90;84.30;;;;;;5073387;28;20414;-65
2023/05/10 03:04:40;;;;;;;40.97;24.60;;;15.90;84.30;;;;;;5073811;28;20071;-66
2023/05/10 03:07:07;;;;;;;40.20;25.80;;;15.90;84.30;;;;;;5073954;28;20033;-67
2023/05/10 03:09:33;;;;;;;39.95;24.30;;;15.90;84.30;;;;;;5082426;28;20024;-67
2023/05/10 03:12:18;;;;;;;38.10;24.77;;;15.90;84.30;;;;;;5071337;28;20086;-67
2023/05/10 03:15:11;;;;;;;40.70;26.27;;;15.90;84.30;;;;;;5070702;28;20044;-65
2023/05/10 03:18:01;;;;;;;38.63;23.02;;;15.90;84.20;;;;;;5068899;28;20084;-65
2023/05/10 03:20:42;;;;;;;39.30;25.45;;;15.90;84.20;;;;;;5045556;28;20454;-65
2023/05/10 03:23:33;;;;;;;42.33;27.08;;;15.90;84.20;;;;;;5064538;28;20021;-65
2023/05/10 03:26:00;;;;;;;39.78;25.42;;;15.90;84.20;;;;;;5069420;28;20025;-65
2023/05/10 03:28:29;;;;;;;40.10;27.45;;;15.90;84.20;;;;;;5072359;28;20028;-65
2023/05/10 03:30:56;;;;;;;40.50;26.25;;;15.90;84.20;;;;;;5069485;28;20428;-65
2023/05/10 03:33:22;;;;;;;43.17;26.45;;;15.90;84.10;;;;;;5066265;28;20017;-65
2023/05/10 03:35:48;;;;;;;39.95;26.77;;;15.80;84.10;;;;;;5055703;28;20093;-64
2023/05/10 03:38:15;;;;;;;41.47;27.50;;;15.80;84.10;;;;;;5047286;28;20040;-65
2023/05/10 03:40:40;;;;;;;40.15;26.08;;;15.80;84.10;;;;;;5062649;28;20361;-64
2023/05/10 03:43:07;;;;;;;40.78;26.45;;;15.80;84.10;;;;;;5052531;28;20039;-65
2023/05/10 03:45:33;;;;;;;39.20;25.67;;;15.80;84.00;;;;;;5057038;28;20065;-65
2023/05/10 03:47:59;;;;;;;40.95;25.73;;;15.80;84.00;;;;;;5071364;28;20021;-64
2023/05/10 03:50:26;;;;;;;38.67;25.85;;;15.80;84.00;;;;;;5050738;28;20353;-65
2023/05/10 03:52:52;;;;;;;44.88;26.45;;;15.80;84.00;;;;;;5071397;28;20040;-65
2023/05/10 03:55:17;;;;;;;42.20;25.75;;;15.80;83.90;;;;;;5069554;28;20036;-65
2023/05/10 03:57:44;;;;;;;41.35;26.63;;;15.70;83.90;;;;;;5067505;28;20033;-66
2023/05/10 04:00:11;;;;;;;38.03;26.40;;;15.80;84.00;;;;;;5072814;28;20307;-67
2023/05/10 04:02:42;;;;;;;42.83;26.30;;;15.70;83.90;;;;;;5070613;28;20024;-66
2023/05/10 04:05:12;;;;;;;39.33;24.73;;;15.70;83.90;;;;;;5072501;28;20024;-67
2023/05/10 04:07:38;;;;;;;39.83;26.38;;;15.70;83.90;;;;;;5054202;28;20149;-65
2023/05/10 04:10:04;;;;;;;42.67;27.52;;;15.70;83.90;;;;;;5053602;28;20449;-64
2023/05/10 04:12:29;;;;;;;38.17;25.85;;;15.70;83.90;;;;;;5067617;28;20030;-65
2023/05/10 04:14:55;;;;;;;36.65;25.70;;;15.70;83.80;;;;;;5070151;28;20417;-64
2023/05/10 04:17:21;;;;;;;39.00;26.45;;;15.70;83.80;;;;;;5067977;28;20104;-64
2023/05/10 04:19:47;;;;;;;42.05;26.02;;;15.70;83.80;;;;;;5071296;28;20025;-65
2023/05/10 04:22:12;;;;;;;41.03;26.67;;;15.70;83.80;;;;;;5064512;28;20356;-65
2023/05/10 04:24:38;;;;;;;37.85;24.85;;;15.70;83.70;;;;;;5058728;28;20048;-64
2023/05/10 04:27:04;;;;;;;40.92;24.98;;;15.70;83.70;;;;;;5055850;28;20027;-64
2023/05/10 04:29:29;;;;;;;38.55;23.10;;;15.70;83.70;;;;;;5069566;28;20466;-64
2023/05/10 04:31:56;;;;;;;36.80;24.25;;;15.70;83.70;;;;;;5069625;28;20453;-65
2023/05/10 04:34:22;;;;;;;38.83;24.45;;;15.60;83.60;;;;;;5068531;28;20428;-65
2023/05/10 04:36:47;;;;;;;36.22;23.35;;;15.60;83.60;;;;;;5062493;28;20150;-65
2023/05/10 04:39:13;;;;;;;35.40;23.15;;;15.60;83.50;;;;;;5055173;28;20029;-65
2023/05/10 04:41:39;;;;;;;36.53;23.55;;;15.60;83.50;;;;;;5069306;28;20103;-65
2023/05/10 04:44:05;;;;;;;38.10;23.17;;;15.60;83.50;;;;;;5057407;28;20017;-65
2023/05/10 04:46:30;;;;;;;34.28;22.30;;;15.60;83.60;;;;;;5063299;28;20527;-64
2023/05/10 04:48:56;;;;;;;35.67;21.83;;;15.60;83.60;;;;;;5064507;28;20031;-64
2023/05/10 04:51:22;;;;;;;37.47;22.08;;;15.60;83.60;;;;;;5068628;28;20117;-64
2023/05/10 04:53:48;;;;;;;39.17;23.33;;;15.60;83.60;;;;;;5072158;28;20407;-66
2023/05/10 04:56:13;;;;;;;36.70;23.90;;;15.60;83.50;;;;;;5060585;28;20027;-64
2023/05/10 04:58:39;;;;;;;37.03;23.70;;;15.60;83.60;;;;;;5068157;28;20388;-65
2023/05/10 05:01:09;;;;;;;33.75;21.23;;;15.60;83.60;;;;;;5065993;28;20111;-65
2023/05/10 05:03:35;;;;;;;38.30;22.83;;;15.60;83.60;;;;;;5062313;28;20017;-65
2023/05/10 05:06:01;;;;;;;34.85;23.52;;;15.60;83.70;;;;;;5059323;28;20023;-65
2023/05/10 05:08:26;;;;;;;38.67;23.15;;;15.60;83.70;;;;;;5064915;28;20020;-66
2023/05/10 05:10:52;;;;;;;43.58;23.60;;;15.60;83.70;;;;;;5054470;28;20535;-66
2023/05/10 05:13:18;;;;;;;40.33;23.45;;;15.60;83.70;;;;;;5054618;28;20071;-66
2023/05/10 05:15:44;;;;;;;38.63;23.52;;;15.60;83.70;;;;;;5065326;28;20061;-65
2023/05/10 05:18:10;;;;;;;35.90;22.80;;;15.60;83.60;;;;;;5062566;28;20082;-66
2023/05/10 05:20:36;;;;;;;39.13;23.33;;;15.60;83.60;;;;;;5072327;28;20029;-66
2023/05/10 05:23:02;;;;;;;36.03;21.95;;;15.60;83.60;;;;;;5068415;28;20070;-66
2023/05/10 05:25:28;;;;;;;34.72;23.05;;;15.60;83.60;;;;;;5072768;28;20036;-66
2023/05/10 05:27:54;;;;;;;35.58;21.40;;;15.70;83.70;;;;;;5073520;28;20048;-66
2023/05/10 05:30:19;;;;;;;32.17;22.23;;;15.60;84.30;;;;;;5074595;28;20068;-66
2023/05/10 05:32:46;;;;;;;35.40;23.50;;;15.70;83.70;;;;;;5074601;28;20024;-66
2023/05/10 05:35:12;;;;;;;35.92;22.70;;;15.70;83.70;;;;;;5073023;28;20076;-66
2023/05/10 05:37:38;;;;;;;35.03;22.98;;;15.70;83.60;;;;;;5072940;28;20085;-66
2023/05/10 05:40:05;;;;;;;38.20;22.00;;;15.70;83.60;;;;;;5064581;28;20076;-66
2023/05/10 05:42:31;;;;;;;35.35;21.88;;;15.80;83.60;;;;;;5066910;28;20031;-65
2023/05/10 05:44:57;;;;;;;35.03;20.92;;;15.80;83.60;;;;;;5080979;28;20021;-66
2023/05/10 05:47:23;;;;;;;35.33;21.73;;;15.80;83.50;;;;;;5065464;28;20043;-66
2023/05/10 05:49:48;;;;;;;33.47;20.77;;;15.80;83.50;;;;;;5063987;28;20026;-65
2023/05/10 05:52:14;;;;;;;36.13;22.30;;;15.80;83.40;;;;;;5065351;28;20028;-65
2023/05/10 05:54:40;;;;;;;36.88;21.63;;;15.90;83.40;;;;;;5061940;28;20568;-66
2023/05/10 05:57:06;;;;;;;34.00;21.95;;;15.90;83.40;;;;;;5065903;28;20036;-65
2023/05/10 05:59:31;;;;;;;35.00;21.63;;;15.90;83.30;;;;;;5064513;28;20460;-66
2023/05/10 06:01:57;;;;;;;36.47;20.63;;;16.00;83.20;;;;;;5049624;28;20035;-66
2023/05/10 06:04:23;;;;;;;36.80;21.55;;;16.00;83.10;;;;;;5063064;28;20331;-65
2023/05/10 06:06:48;;;;;;;36.10;22.35;;;16.00;83.00;;;;;;5061743;28;20028;-65
2023/05/10 06:09:14;;;;;;;36.80;21.67;;;16.00;83.00;;;;;;5063454;28;20040;-65
2023/05/10 06:11:40;;;;;;;36.35;21.65;;;16.00;83.00;;;;;;5066506;28;20404;-65
2023/05/10 06:14:07;;;;;;;36.50;21.30;;;16.00;83.10;;;;;;5064406;28;20037;-66
2023/05/10 06:16:34;;;;;;;37.22;22.00;;;16.00;83.10;;;;;;5063538;28;20086;-65
2023/05/10 06:19:00;;;;;;;35.35;21.92;;;16.00;83.10;;;;;;5059089;28;20023;-65
2023/05/10 06:21:25;;;;;;;37.83;23.02;;;16.00;83.00;;;;;;5060254;28;20016;-65
2023/05/10 06:23:51;;;;;;;38.88;22.35;;;16.00;83.00;;;;;;5063739;28;20106;-65
2023/05/10 06:26:17;;;;;;;38.13;22.02;;;16.00;83.00;;;;;;5064070;28;20025;-64
2023/05/10 06:28:43;;;;;;;41.95;23.98;;;16.00;83.10;;;;;;5069878;28;20404;-65
2023/05/10 06:31:08;;;;;;;38.60;23.17;;;15.90;83.10;;;;;;5059061;28;20035;-64
2023/05/10 06:33:35;;;;;;;40.40;23.42;;;15.90;83.20;;;;;;5066994;28;20032;-66
2023/05/10 06:36:00;;;;;;;39.17;22.55;;;15.90;83.20;;;;;;5067926;28;20028;-64
2023/05/10 06:38:27;;;;;;;36.92;21.67;;;15.90;83.20;;;;;;5067409;28;20036;-64
2023/05/10 06:40:52;;;;;;;34.97;22.65;;;15.90;83.20;;;;;;5065040;28;20163;-67
2023/05/10 06:43:18;;;;;;;36.92;22.02;;;15.90;83.20;;;;;;5054804;28;20605;-67
2023/05/10 06:45:44;;;;;;;35.03;22.10;;;15.90;83.20;;;;;;5067562;28;20497;-64
2023/05/10 06:48:09;;;;;;;35.80;22.50;;;15.90;83.20;;;;;;5071843;28;20025;-64
2023/05/10 06:50:35;;;;;;;34.70;20.98;;;15.90;83.30;;;;;;5068128;28;20060;-64
2023/05/10 06:53:01;;;;;;;35.05;21.75;;;15.90;83.30;;;;;;5068688;28;20119;-66
2023/05/10 06:55:28;;;;;;;37.38;23.30;;;15.90;83.40;;;;;;5066737;28;20028;-65
2023/05/10 06:57:54;;;;;;;37.88;22.35;;;15.90;83.40;;;;;;5058270;28;20357;-66
2023/05/10 07:00:20;;;;;;;40.47;22.33;;;15.90;83.40;;;;;;5064355;28;20029;-66
2023/05/10 07:02:46;;;;;;;36.45;22.52;;;15.90;83.40;;;;;;5075300;28;20032;-66
2023/05/10 07:05:12;;;;;;;36.22;22.90;;;15.90;83.40;;;;;;5056877;28;20028;-66
2023/05/10 07:07:38;;;;;;;36.60;21.65;;;15.90;83.40;;;;;;5067598;28;20085;-66
2023/05/10 07:10:04;;;;;;;35.80;22.88;;;15.90;83.40;;;;;;5058863;28;20086;-66
2023/05/10 07:12:30;;;;;;;39.55;22.98;;;15.90;83.40;;;;;;5065585;28;20107;-66
2023/05/10 07:14:56;;;;;;;40.28;24.23;;;15.90;83.40;;;;;;5076061;28;20074;-66
2023/05/10 07:17:22;;;;;;;40.40;24.77;;;16.00;83.40;;;;;;5076863;28;20051;-66
2023/05/10 07:19:48;;;;;;;36.10;22.35;;;16.00;83.30;;;;;;5073819;28;20482;-66
2023/05/10 07:22:15;;;;;;;40.53;24.63;;;16.00;83.30;;;;;;5062546;28;20485;-66
2023/05/10 07:24:41;;;;;;;37.20;23.25;;;16.00;83.20;;;;;;5069579;28;20086;-67
2023/05/10 07:27:06;;;;;;;41.05;25.65;;;16.00;83.20;;;;;;5062596;28;20029;-66
2023/05/10 07:29:33;;;;;;;38.25;24.50;;;16.10;83.20;;;;;;5069605;28;20039;-66
2023/05/10 07:31:58;;;;;;;41.53;25.80;;;16.00;83.20;;;;;;5075463;28;20438;-66
2023/05/10 07:34:24;;;;;;;39.97;24.90;;;16.10;83.20;;;;;;5074612;28;21643;-66
2023/05/10 07:36:51;;;;;;;41.85;26.23;;;16.10;83.20;;;;;;5071961;28;20372;-66
2023/05/10 07:39:16;;;;;;;40.35;25.10;;;16.10;83.20;;;;;;5076840;28;20434;-66
2023/05/10 07:41:42;;;;;;;44.80;25.73;;;16.10;83.20;;;;;;5076783;28;20035;-66
2023/05/10 07:44:08;;;;;;;41.28;25.05;;;16.10;83.10;;;;;;5071376;28;20491;-66
2023/05/10 07:46:33;;;;;;;41.13;24.92;;;16.20;83.80;;;;;;5076127;28;20020;-67
2023/05/10 07:48:59;;;;;;;40.05;24.48;;;16.30;83.10;;;;;;5073068;28;20013;-65
2023/05/10 07:51:25;;;;;;;41.65;24.45;;;16.30;83.00;;;;;;5076799;28;20166;-65
2023/05/10 07:53:51;;;;;;;41.42;24.70;;;16.30;82.80;;;;;;5075135;28;20028;-66
2023/05/10 07:56:29;;;;;;;40.88;24.17;;;16.40;82.80;;;;;;5076637;28;20025;-65
2023/05/10 07:58:56;;;;;;;40.10;24.20;;;16.40;82.80;;;;;;5074319;28;20044;-66
2023/05/10 08:01:22;;;;;;;39.78;22.75;;;16.40;82.80;;;;;;5069238;28;20024;-67
2023/05/10 08:03:48;;;;;;;34.80;21.42;;;16.40;82.80;;;;;;5067801;28;20052;-67
2023/05/10 08:06:17;;;;;;;34.30;20.70;;;16.40;82.70;;;;;;5064210;28;20437;-67
2023/05/10 08:08:43;;;;;;;31.35;18.60;;;16.40;83.40;;;;;;5063132;28;20043;-67
2023/05/10 08:11:08;;;;;;;33.75;20.27;;;16.50;82.70;;;;;;5060185;28;20128;-69
2023/05/10 08:13:34;;;;;;;33.60;21.10;;;16.60;82.60;;;;;;5072557;28;20119;-66
2023/05/10 08:16:00;;;;;;;34.28;20.70;;;16.80;82.30;;;;;;5069913;28;20028;-66
2023/05/10 08:18:26;;;;;;;81.35;23.55;;;16.90;82.10;;;;;;5074873;28;20115;-66
2023/05/10 08:20:51;;;;;;;38.63;21.92;;;17.00;81.80;;;;;;5058885;28;20422;-65
2023/05/10 08:23:17;;;;;;;33.55;19.52;;;17.30;81.60;;;;;;5067349;28;20036;-65
2023/05/10 08:25:43;;;;;;;32.10;19.52;;;17.50;81.00;;;;;;5071936;28;20043;-65
2023/05/10 08:28:09;;;;;;;31.88;19.88;;;17.60;80.50;;;;;;5074430;28;20338;-66
2023/05/10 08:30:34;;;;;;;33.10;20.58;;;17.60;80.30;;;;;;5073562;28;20039;-66
2023/05/10 08:33:00;;;;;;;29.05;18.58;;;17.60;80.20;;;;;;5073233;28;20035;-66
2023/05/10 08:35:26;;;;;;;27.88;19.10;;;17.70;80.80;;;;;;5071560;28;20039;-66
2023/05/10 08:37:51;;;;;;;28.48;18.35;;;17.80;79.80;;;;;;5061099;28;20029;-66
2023/05/10 08:40:20;;;;;;;28.60;18.20;;;17.70;79.50;;;;;;5072626;28;20024;-66
2023/05/10 08:43:05;;;;;;;30.23;18.55;;;17.60;79.30;;;;;;5069937;28;20452;-66
2023/05/10 08:45:37;;;;;;;29.63;18.83;;;17.50;79.40;;;;;;5082941;28;20021;-66
2023/05/10 08:48:05;;;;;;;30.25;18.33;;;17.40;79.50;;;;;;5072680;28;20309;-65
2023/05/10 08:50:31;;;;;;;33.08;18.58;;;17.30;79.60;;;;;;5068600;28;20024;-66
2023/05/10 08:53:09;;;;;;;27.80;17.38;;;17.20;79.70;;;;;;5074205;28;20032;-66
2023/05/10 08:55:39;;;;;;;25.58;15.57;;;17.10;79.60;;;;;;5074172;28;20060;-67
2023/05/10 08:58:06;;;;;;;22.63;14.13;;;16.90;79.70;;;;;;5063029;28;20119;-66
2023/05/10 09:00:32;;;;;;;22.00;14.15;;;16.90;79.80;;;;;;5073186;28;20025;-66
2023/05/10 09:02:59;;;;;;;20.50;13.63;;;17.00;79.70;;;;;;5074386;28;20020;-66
2023/05/10 09:05:25;;;;;;;21.48;14.25;;;17.00;79.40;;;;;;5068963;28;20024;-65
2023/05/10 09:07:50;;;;;;;21.60;12.98;;;17.00;79.20;;;;;;5057680;28;20025;-65
2023/05/10 09:10:17;;;;;;;19.35;12.90;;;17.10;79.30;;;;;;5062546;28;20433;-65
2023/05/10 09:12:45;;;;;;;19.77;12.50;;;17.10;79.10;;;;;;5058588;28;20075;-65
2023/05/10 09:15:11;;;;;;;17.73;11.82;;;17.20;78.90;;;;;;5078177;28;20036;-66
2023/05/10 09:17:40;;;;;;;17.05;10.32;;;17.40;78.60;;;;;;5065941;28;20550;-65
2023/05/10 09:20:06;;;;;;;15.63;9.65;;;17.60;78.10;;;;;;5062306;28;20056;-65
2023/05/10 09:22:33;;;;;;;14.82;9.52;;;17.80;77.60;;;;;;5062029;28;20079;-66
2023/05/10 09:25:08;;;;;;;15.13;9.82;;;18.10;77.10;;;;;;5064245;28;20351;-66
2023/05/10 09:27:35;;;;;;;15.30;8.60;;;18.20;76.40;;;;;;5064088;28;20029;-66
2023/05/10 09:30:01;;;;;;;14.43;7.85;;;18.30;76.10;;;;;;5062970;28;20033;-66
2023/05/10 09:32:40;;;;;;;12.63;7.15;;;18.30;75.80;;;;;;5059014;28;20052;-68
2023/05/10 09:35:08;;;;;;;13.00;7.07;;;18.10;75.30;;;;;;5058136;28;20036;-67
2023/05/10 09:37:33;;;;;;;11.88;7.40;;;18.00;75.50;;;;;;5054952;28;20036;-64
2023/05/10 09:39:59;;;;;;;11.70;6.75;;;17.90;75.60;;;;;;5060353;28;20025;-64
2023/05/10 09:42:25;;;;;;;12.05;6.53;;;17.90;75.50;;;;;;5069295;28;20029;-64
2023/05/10 09:44:51;;;;;;;10.95;6.55;;;17.90;75.50;;;;;;5054813;28;20013;-66
2023/05/10 09:47:19;;;;;;;12.30;7.40;;;17.90;75.20;;;;;;5062631;28;20094;-68
2023/05/10 09:49:53;;;;;;;11.27;6.75;;;17.90;74.80;;;;;;5056814;28;20020;-63
2023/05/10 09:52:18;;;;;;;11.20;6.40;;;17.90;74.60;;;;;;5057261;28;20056;-64
2023/05/10 09:54:54;;;;;;;12.00;7.00;;;17.90;74.60;;;;;;5054587;28;20064;-64
2023/05/10 09:57:25;;;;;;;13.55;6.47;;;17.90;74.40;;;;;;5058725;28;20429;-64
2023/05/10 09:59:51;;;;;;;10.10;6.18;;;17.90;74.30;;;;;;5055879;28;20029;-64
2023/05/10 10:02:17;;;;;;;11.90;7.22;;;18.00;74.30;;;;;;5059745;28;20096;-64
2023/05/10 10:04:43;;;;;;;13.32;7.43;;;18.00;74.00;;;;;;5058340;28;20411;-64
2023/05/10 10:07:09;;;;;;;14.85;7.55;;;17.90;73.80;;;;;;5060427;28;20043;-64
2023/05/10 10:09:35;;;;;;;11.80;6.65;;;17.90;73.90;;;;;;5063103;28;20029;-64
2023/05/10 10:12:02;;;;;;;12.10;7.32;;;17.80;73.90;;;;;;5055876;28;20041;-64
2023/05/10 10:14:29;;;;;;;11.57;6.70;;;17.90;73.80;;;;;;5059168;28;20040;-64
2023/05/10 10:16:55;;;;;;;12.35;7.40;;;17.80;73.70;;;;;;5063516;28;20078;-64
2023/05/10 10:19:22;;;;;;;11.50;6.55;;;17.80;74.20;;;;;;5062675;28;20027;-64
2023/05/10 10:21:49;;;;;;;11.40;6.55;;;17.70;73.70;;;;;;5062437;28;20024;-64
2023/05/10 10:24:15;;;;;;;11.85;7.03;;;17.80;73.80;;;;;;5063504;28;20112;-65
2023/05/10 10:26:42;;;;;;;11.23;6.97;;;17.70;73.70;;;;;;5057741;28;20108;-64
2023/05/10 10:29:14;;;;;;;15.02;6.82;;;17.70;73.70;;;;;;5061098;28;20082;-67
2023/05/10 10:31:46;;;;;;;13.10;7.35;;;17.70;73.70;;;;;;5065742;28;20040;-65
2023/05/10 10:34:29;;;;;;;11.60;7.82;;;17.70;73.70;;;;;;5060100;28;20074;-64
2023/05/10 10:36:56;;;;;;;13.23;7.53;;;17.70;73.60;;;;;;5068907;28;20031;-64
2023/05/10 10:39:25;;;;;;;11.90;6.78;;;17.70;74.30;;;;;;5070030;28;20029;-64
2023/05/10 10:41:56;;;;;;;12.48;7.82;;;17.70;73.60;;;;;;5070207;28;20058;-64
2023/05/10 10:44:30;;;;;;;13.45;8.02;;;17.70;74.20;;;;;;5067822;28;20033;-64
2023/05/10 10:47:00;;;;;;;15.23;9.20;;;17.80;73.50;;;;;;5067351;28;20353;-64
2023/05/10 10:49:26;;;;;;;13.68;7.85;;;17.90;73.30;;;;;;5064979;28;20048;-63
2023/05/10 10:52:22;;;;;;;13.02;8.55;;;17.90;73.10;;;;;;5067677;28;20357;-64
2023/05/10 10:55:05;;;;;;;13.75;8.45;;;18.00;72.90;;;;;;5045997;28;20119;-64
2023/05/10 10:58:00;;;;;;;14.45;8.25;;;18.00;72.50;;;;;;5062934;28;20420;-64
2023/05/10 11:00:26;;;;;;;12.82;8.40;;;18.00;72.50;;;;;;5056791;28;20044;-66
2023/05/10 11:02:55;;;;;;;12.88;8.25;;;18.00;72.50;;;;;;5058184;28;20361;-63
2023/05/10 11:05:36;;;;;;;13.20;8.07;;;18.00;72.50;;;;;;5059997;28;20017;-64
2023/05/10 11:08:13;;;;;;;13.63;8.13;;;18.00;72.40;;;;;;5064704;28;20035;-65
2023/05/10 11:10:40;;;;;;;13.23;8.00;;;18.00;73.20;;;;;;5060338;28;20130;-65
2023/05/10 11:13:08;;;;;;;13.20;8.13;;;17.90;72.60;;;;;;5060910;28;20358;-64
2023/05/10 11:15:38;;;;;;;11.70;7.00;;;17.90;72.50;;;;;;5059785;28;20064;-64
2023/05/10 11:18:24;;;;;;;13.00;7.55;;;17.90;72.50;;;;;;5062792;28;20021;-65
2023/05/10 11:20:59;;;;;;;12.13;7.22;;;18.00;72.50;;;;;;5068702;28;20449;-63
2023/05/10 11:23:30;;;;;;;13.05;7.93;;;18.10;72.40;;;;;;5067642;28;20040;-67
2023/05/10 11:25:56;;;;;;;10.77;6.72;;;18.20;71.90;;;;;;5060840;28;20344;-68
2023/05/10 11:28:22;;;;;;;12.82;7.78;;;18.30;71.80;;;;;;5066702;28;20128;-68
2023/05/10 11:30:48;;;;;;;12.25;7.38;;;18.30;71.60;;;;;;5076032;28;20421;-68
2023/05/10 11:33:19;;;;;;;12.82;7.78;;;18.30;71.60;;;;;;5077015;28;20203;-68
2023/05/10 11:35:45;;;;;;;14.15;7.32;;;18.50;71.60;;;;;;5075910;28;20124;-68
2023/05/10 11:38:13;;;;;;;15.45;7.90;;;18.60;71.50;;;;;;5074671;28;20040;-68
2023/05/10 11:40:40;;;;;;;13.77;7.95;;;18.80;71.30;;;;;;5075740;28;20066;-68
2023/05/10 11:43:05;;;;;;;10.93;7.00;;;18.90;70.80;;;;;;5076436;28;20047;-68
2023/05/10 11:45:35;;;;;;;13.25;7.65;;;19.00;70.70;;;;;;5075607;28;20036;-68
2023/05/10 11:48:02;;;;;;;11.80;7.30;;;19.00;70.50;;;;;;5075278;28;20040;-68
2023/05/10 11:50:28;;;;;;;11.30;6.55;;;19.00;70.40;;;;;;5067684;28;20024;-68
2023/05/10 11:52:55;;;;;;;11.65;6.60;;;19.10;70.00;;;;;;5076476;28;20029;-68
2023/05/10 11:55:21;;;;;;;10.43;5.82;;;19.10;69.80;;;;;;5076640;28;20365;-68
2023/05/10 11:57:47;;;;;;;10.23;6.47;;;19.10;69.50;;;;;;5075046;28;20020;-68
2023/05/10 12:00:14;;;;;;;12.15;7.57;;;19.20;69.30;;;;;;5076185;28;20040;-68
2023/05/10 12:02:42;;;;;;;11.32;6.57;;;19.20;68.90;;;;;;5075243;28;20442;-68
2023/05/10 12:05:08;;;;;;;10.30;6.15;;;19.20;68.80;;;;;;5074995;28;20514;-68
2023/05/10 12:07:34;;;;;;;10.80;6.68;;;19.20;68.90;;;;;;5068762;28;20162;-68
2023/05/10 12:10:14;;;;;;;13.60;6.72;;;19.20;69.10;;;;;;5075846;28;20116;-68
2023/05/10 12:12:42;;;;;;;10.10;6.15;;;19.30;69.10;;;;;;5069089;28;20037;-68
2023/05/10 12:15:27;;;;;;;10.60;6.47;;;19.40;68.90;;;;;;5069280;28;20036;-68
2023/05/10 12:17:53;;;;;;;10.80;6.22;;;19.50;68.40;;;;;;5074647;28;20024;-68
2023/05/10 12:20:21;;;;;;;11.40;6.80;;;19.40;68.20;;;;;;5076137;28;20115;-68
2023/05/10 12:22:52;;;;;;;11.70;5.75;;;19.50;68.20;;;;;;5075864;28;20377;-68
2023/05/10 12:25:22;;;;;;;12.25;6.63;;;19.50;67.90;;;;;;5076127;28;20047;-68
2023/05/10 12:27:53;;;;;;;12.73;6.50;;;19.50;67.60;;;;;;5061768;28;20436;-68
2023/05/10 12:30:24;;;;;;;10.35;5.95;;;19.50;67.60;;;;;;5075582;28;20118;-68
2023/05/10 12:32:50;;;;;;;10.10;6.18;;;19.50;67.70;;;;;;5074469;28;20345;-68
2023/05/10 12:35:16;;;;;;;10.70;6.28;;;19.50;67.70;;;;;;5074501;28;20033;-69
2023/05/10 12:37:45;;;;;;;11.30;6.63;;;19.50;67.60;;;;;;5074664;28;20409;-69